Time;durP1;ratioP1;P1;durP2;ratioP2;P2;SDS_P1;SDS_P2;PMS_P1;PMS_P2;Temp;Humidity;BMP_temperature;BMP_pressure;BME280_temperature;BME280_humidity;BME280_pressure;Samples;Min_cycle;Max_cycle;Signal;HPM_P1;HPM_P2
2022/12/26 00:01:06;;;;;;;58.30;25.45;;;;;;;;;;12845337;19;20007;-66
2022/12/26 00:05:23;;;;;;;36.33;17.40;;;;;;;;;;12846614;19;20011;-67
2022/12/26 00:09:39;;;;;;;41.08;20.67;;;;;;;;;;12844606;19;20314;-66
2022/12/26 00:14:02;;;;;;;30.20;15.32;;;;;;;;;;12843825;19;20295;-66
2022/12/26 00:18:19;;;;;;;25.20;13.63;;;;;;;;;;12844087;19;20118;-67
2022/12/26 00:22:35;;;;;;;24.63;14.15;;;;;;;;;;12844387;19;20031;-67
2022/12/26 00:26:52;;;;;;;26.48;11.57;;;;;;;;;;12844193;19;20314;-67
2022/12/26 00:31:11;;;;;;;19.13;10.63;;;;;;;;;;12843281;19;20676;-66
2022/12/26 00:35:28;;;;;;;26.13;12.65;;;;;;;;;;12845891;19;20288;-66
2022/12/26 00:39:45;;;;;;;16.27;9.05;;;;;;;;;;12844392;19;20392;-66
2022/12/26 00:44:02;;;;;;;15.23;8.15;;;;;;;;;;12842988;19;20476;-66
2022/12/26 00:48:19;;;;;;;13.23;7.03;;;;;;;;;;12842810;19;20002;-66
2022/12/26 00:52:35;;;;;;;11.95;6.63;;;;;;;;;;12843653;19;20441;-68
2022/12/26 00:56:53;;;;;;;17.92;8.32;;;;;;;;;;12842761;19;20014;-68
2022/12/26 01:01:18;;;;;;;17.17;9.65;;;;;;;;;;12841600;19;20040;-66
2022/12/26 01:05:39;;;;;;;13.90;8.13;;;;;;;;;;12843142;19;20426;-67
2022/12/26 01:09:55;;;;;;;14.23;7.28;;;;;;;;;;12841708;19;20488;-65
2022/12/26 01:14:16;;;;;;;39.08;14.23;;;;;;;;;;12841557;19;20373;-66
2022/12/26 01:18:33;;;;;;;52.40;15.80;;;;;;;;;;12841745;19;20025;-65
2022/12/26 01:22:50;;;;;;;15.27;7.67;;;;;;;;;;12840786;19;20006;-67
2022/12/26 01:27:07;;;;;;;13.60;7.32;;;;;;;;;;12839885;19;20460;-66
2022/12/26 01:31:24;;;;;;;18.80;10.02;;;;;;;;;;12841674;19;20450;-67
2022/12/26 01:35:47;;;;;;;16.27;8.77;;;;;;;;;;12840634;19;20374;-67
2022/12/26 01:40:04;;;;;;;19.33;9.50;;;;;;;;;;12840218;19;20477;-67
2022/12/26 01:44:40;;;;;;;16.25;8.50;;;;;;;;;;12841920;19;20447;-68
2022/12/26 01:48:59;;;;;;;83.60;35.63;;;;;;;;;;12839279;19;20020;-66
2022/12/26 01:53:20;;;;;;;61.80;21.55;;;;;;;;;;12839420;19;20335;-68
2022/12/26 01:57:41;;;;;;;44.60;16.30;;;;;;;;;;12837453;19;20541;-66
2022/12/26 02:01:58;;;;;;;23.00;10.38;;;;;;;;;;12840343;19;20010;-66
2022/12/26 02:06:16;;;;;;;;;;;;;;;;;;12839489;19;20011;-65
2022/12/26 02:10:37;;;;;;;82.43;19.48;;;;;;;;;;12838253;19;19938;-65
2022/12/26 02:14:58;;;;;;;17.42;9.80;;;;;;;;;;12838843;19;20380;-66
2022/12/26 02:19:25;;;;;;;16.55;7.82;;;;;;;;;;12837735;19;20335;-65
2022/12/26 02:23:42;;;;;;;14.77;6.90;;;;;;;;;;12838030;19;20506;-65
2022/12/26 02:27:58;;;;;;;14.50;7.18;;;;;;;;;;12836628;19;20007;-68
2022/12/26 02:32:24;;;;;;;25.60;8.90;;;;;;;;;;12836925;19;20481;-65
2022/12/26 02:36:50;;;;;;;50.17;14.60;;;;;;;;;;12837299;19;20033;-68
2022/12/26 02:41:16;;;;;;;12.82;7.15;;;;;;;;;;12836400;19;20042;-66
2022/12/26 03:14:16;;;;;;;10.75;5.28;;;;;;;;;;12847516;19;20438;-66
2022/12/26 03:18:35;;;;;;;13.40;5.75;;;;;;;;;;12847416;19;20418;-65
2022/12/26 03:23:14;;;;;;;12.18;6.20;;;;;;;;;;12846655;19;20425;-66
2022/12/26 03:27:32;;;;;;;12.70;6.35;;;;;;;;;;12847160;19;20331;-66
2022/12/26 03:31:49;;;;;;;14.85;8.70;;;;;;;;;;12847316;19;20322;-65
2022/12/26 03:36:10;;;;;;;12.65;7.32;;;;;;;;;;12845959;19;20351;-65
2022/12/26 04:46:33;;;;;;;8.50;5.20;;;;;;;;;;12833610;19;20426;-67
2022/12/26 04:50:50;;;;;;;;;;;;;;;;;;12838782;19;20519;-65
2022/12/26 04:55:07;;;;;;;8.52;4.78;;;;;;;;;;12842091;19;19918;-65
2022/12/26 04:59:24;;;;;;;11.05;5.60;;;;;;;;;;12844681;19;20328;-65
2022/12/26 05:13:02;;;;;;;7.80;4.70;;;;;;;;;;12334536;19;10001105;-65
2022/12/26 05:31:06;;;;;;;7.15;4.45;;;;;;;;;;12837952;19;20015;-66
2022/12/26 05:35:23;;;;;;;8.13;4.57;;;;;;;;;;12840388;19;20438;-67
2022/12/26 05:39:40;;;;;;;8.88;4.68;;;;;;;;;;12839783;19;20465;-66
2022/12/26 05:43:56;;;;;;;7.07;4.32;;;;;;;;;;12840366;19;20449;-65
2022/12/26 05:48:13;;;;;;;8.25;4.32;;;;;;;;;;12837036;19;20425;-67
2022/12/26 05:52:30;;;;;;;7.75;4.32;;;;;;;;;;12840546;19;20437;-66
2022/12/26 05:56:47;;;;;;;8.75;4.72;;;;;;;;;;12840051;19;20323;-65
2022/12/26 06:01:06;;;;;;;8.50;5.03;;;;;;;;;;12838082;19;20021;-66
2022/12/26 06:05:22;;;;;;;10.50;5.13;;;;;;;;;;12839061;19;20321;-66
2022/12/26 06:09:39;;;;;;;7.35;4.97;;;;;;;;;;12838836;19;20030;-67
2022/12/26 06:13:56;;;;;;;9.65;5.32;;;;;;;;;;12838523;19;20377;-66
2022/12/26 06:18:13;;;;;;;13.25;6.60;;;;;;;;;;12838135;19;20532;-65
2022/12/26 06:22:29;;;;;;;13.18;5.40;;;;;;;;;;12837989;19;20469;-65
2022/12/26 06:26:46;;;;;;;9.30;5.10;;;;;;;;;;12838134;19;20030;-64
2022/12/26 06:31:04;;;;;;;9.32;5.43;;;;;;;;;;12836498;19;20038;-67
2022/12/26 06:35:21;;;;;;;10.30;6.32;;;;;;;;;;12837801;19;20493;-65
2022/12/26 06:39:38;;;;;;;11.17;6.00;;;;;;;;;;12836785;19;20314;-65
2022/12/26 06:43:55;;;;;;;13.25;6.38;;;;;;;;;;12836366;19;20433;-65
2022/12/26 06:48:11;;;;;;;9.75;6.20;;;;;;;;;;12835530;19;20343;-65
2022/12/26 06:52:28;;;;;;;11.15;6.35;;;;;;;;;;12837248;19;20331;-66
2022/12/26 06:56:45;;;;;;;11.90;7.03;;;;;;;;;;12836683;19;20006;-65
2022/12/26 07:01:05;;;;;;;14.80;7.47;;;;;;;;;;12836059;19;20466;-65
2022/12/26 07:05:21;;;;;;;13.38;7.25;;;;;;;;;;12835574;19;20023;-65
2022/12/26 07:09:38;;;;;;;13.60;7.15;;;;;;;;;;12833845;19;20331;-65
2022/12/26 07:13:56;;;;;;;15.98;8.65;;;;;;;;;;12835775;19;20011;-65
2022/12/26 07:18:14;;;;;;;;;;;;;;;;;;12835205;19;20327;-65
2022/12/26 07:22:30;;;;;;;14.02;8.82;;;;;;;;;;12835737;19;20306;-66
2022/12/26 07:26:48;;;;;;;16.35;9.07;;;;;;;;;;12835394;19;20336;-65
2022/12/26 07:31:05;;;;;;;14.52;9.23;;;;;;;;;;12834016;19;20434;-65
2022/12/26 07:35:21;;;;;;;14.50;8.83;;;;;;;;;;12832899;19;20316;-65
2022/12/26 07:39:38;;;;;;;19.48;11.68;;;;;;;;;;12837458;19;20007;-66
2022/12/26 07:43:55;;;;;;;21.08;13.40;;;;;;;;;;12834447;19;20430;-66
2022/12/26 07:48:12;;;;;;;20.50;9.88;;;;;;;;;;12833648;19;20010;-65
2022/12/26 07:52:28;;;;;;;19.40;11.27;;;;;;;;;;12833615;19;20473;-66
2022/12/26 07:56:45;;;;;;;18.45;11.15;;;;;;;;;;12842449;19;20344;-65
2022/12/26 08:01:02;;;;;;;14.30;7.70;;;;;;;;;;12845099;19;20398;-65
2022/12/26 08:05:19;;;;;;;16.17;8.37;;;;;;;;;;12843375;19;20025;-66
2022/12/26 08:09:41;;;;;;;34.35;16.50;;;;;;;;;;12844255;19;20769;-66
2022/12/26 08:13:58;;;;;;;23.85;12.70;;;;;;;;;;12846337;19;20465;-68
2022/12/26 08:18:16;;;;;;;15.07;9.35;;;;;;;;;;12845059;19;20312;-68
2022/12/26 08:22:32;;;;;;;14.02;7.93;;;;;;;;;;12844494;19;20007;-66
2022/12/26 08:26:49;;;;;;;11.63;6.90;;;;;;;;;;12844504;19;20338;-66
2022/12/26 08:31:07;;;;;;;11.57;7.60;;;;;;;;;;12842337;19;20433;-67
2022/12/26 08:35:23;;;;;;;12.38;7.18;;;;;;;;;;12843953;19;20015;-66
2022/12/26 08:39:40;;;;;;;16.13;7.75;;;;;;;;;;12843435;19;20301;-66
2022/12/26 08:43:57;;;;;;;12.55;8.35;;;;;;;;;;12843872;19;20434;-66
2022/12/26 08:48:34;;;;;;;13.85;8.40;;;;;;;;;;12841117;19;20502;-67
2022/12/26 08:52:51;;;;;;;15.70;7.60;;;;;;;;;;12843462;19;20344;-66
2022/12/26 08:57:08;;;;;;;20.52;11.57;;;;;;;;;;12841023;19;20442;-66
2022/12/26 09:01:26;;;;;;;13.63;8.00;;;;;;;;;;12843663;19;20434;-67
2022/12/26 09:05:43;;;;;;;15.02;8.43;;;;;;;;;;12842708;19;20718;-66
2022/12/26 09:10:00;;;;;;;14.77;7.97;;;;;;;;;;12841915;19;20466;-67
2022/12/26 09:14:17;;;;;;;12.98;7.13;;;;;;;;;;12842254;19;20280;-66
2022/12/26 09:18:35;;;;;;;13.63;8.38;;;;;;;;;;12841768;19;20557;-66
2022/12/26 09:22:51;;;;;;;13.85;7.57;;;;;;;;;;12841238;19;20343;-66
2022/12/26 09:27:08;;;;;;;17.92;7.47;;;;;;;;;;12840088;19;20482;-67
2022/12/26 09:31:26;;;;;;;15.50;7.68;;;;;;;;;;12839495;19;20417;-66
2022/12/26 09:35:43;;;;;;;11.75;7.15;;;;;;;;;;12840936;19;20433;-67
2022/12/26 09:40:00;;;;;;;17.30;9.63;;;;;;;;;;12840270;19;20451;-66
2022/12/26 09:44:27;;;;;;;11.43;7.00;;;;;;;;;;12840078;19;20046;-66
2022/12/26 09:48:53;;;;;;;14.40;7.88;;;;;;;;;;12839522;19;20430;-68
2022/12/26 09:53:15;;;;;;;12.27;6.57;;;;;;;;;;12838658;19;20358;-67
2022/12/26 09:57:35;;;;;;;10.60;6.57;;;;;;;;;;12839923;19;20042;-66
2022/12/26 10:01:52;;;;;;;12.75;5.93;;;;;;;;;;12840143;19;20066;-66
2022/12/26 10:06:12;;;;;;;12.43;6.55;;;;;;;;;;12838696;19;20377;-67
2022/12/26 10:10:44;;;;;;;20.98;11.52;;;;;;;;;;12838213;19;20422;-66
2022/12/26 10:15:05;;;;;;;31.77;12.10;;;;;;;;;;12839112;19;20430;-67
2022/12/26 10:19:22;;;;;;;21.52;9.70;;;;;;;;;;12836721;19;20010;-67
2022/12/26 10:23:50;;;;;;;17.23;8.95;;;;;;;;;;12838684;19;20314;-66
2022/12/26 10:28:14;;;;;;;11.27;6.50;;;;;;;;;;12838221;19;20346;-67
2022/12/26 10:32:38;;;;;;;11.10;6.47;;;;;;;;;;12837643;19;20324;-66
2022/12/26 10:37:00;;;;;;;10.15;6.63;;;;;;;;;;12838482;19;20015;-67
2022/12/26 10:41:25;;;;;;;11.80;6.60;;;;;;;;;;12835917;19;20481;-66
2022/12/26 10:45:46;;;;;;;11.63;6.47;;;;;;;;;;12836778;19;20126;-67
2022/12/26 10:50:04;;;;;;;14.80;8.77;;;;;;;;;;12832206;19;20546;-66
2022/12/26 10:54:21;;;;;;;14.82;7.80;;;;;;;;;;12836722;19;20341;-68
2022/12/26 10:58:38;;;;;;;15.00;8.20;;;;;;;;;;12837297;19;20315;-66
2022/12/26 11:03:06;;;;;;;16.42;9.90;;;;;;;;;;12837385;19;20395;-67
2022/12/26 11:07:24;;;;;;;26.27;15.75;;;;;;;;;;12834973;19;20325;-68
2022/12/26 11:11:47;;;;;;;16.58;8.23;;;;;;;;;;12835760;19;20422;-67
2022/12/26 11:16:04;;;;;;;16.70;8.20;;;;;;;;;;12834602;19;20474;-68
2022/12/26 11:20:22;;;;;;;12.33;8.00;;;;;;;;;;12835529;19;20501;-67
2022/12/26 11:24:40;;;;;;;22.27;11.50;;;;;;;;;;12835351;19;20340;-66
2022/12/26 11:29:04;;;;;;;22.55;12.80;;;;;;;;;;12835974;19;20006;-66
2022/12/26 11:33:23;;;;;;;13.27;8.43;;;;;;;;;;12846694;19;20347;-68
2022/12/26 11:37:41;;;;;;;17.08;8.82;;;;;;;;;;12846857;19;20006;-67
2022/12/26 11:41:58;;;;;;;15.57;8.75;;;;;;;;;;12844780;19;20296;-66
2022/12/26 11:46:15;;;;;;;11.90;6.90;;;;;;;;;;12845072;19;20356;-66
2022/12/26 11:50:34;;;;;;;11.52;6.35;;;;;;;;;;12845084;19;20315;-67
2022/12/26 11:54:50;;;;;;;14.60;8.43;;;;;;;;;;12846608;19;20684;-66
2022/12/26 11:59:19;;;;;;;16.60;8.80;;;;;;;;;;12844635;19;20430;-67
2022/12/26 12:03:38;;;;;;;16.00;9.98;;;;;;;;;;12845041;19;20335;-68
2022/12/26 12:08:12;;;;;;;18.17;9.88;;;;;;;;;;12844047;19;20360;-66
2022/12/26 12:12:29;;;;;;;18.88;8.65;;;;;;;;;;12844556;19;20411;-67
2022/12/26 12:16:50;;;;;;;12.10;6.38;;;;;;;;;;12844572;19;20450;-66
2022/12/26 12:21:07;;;;;;;20.40;10.25;;;;;;;;;;12843205;19;20462;-66
2022/12/26 12:25:42;;;;;;;41.40;29.35;;;;;;;;;;12844881;19;20513;-66
2022/12/26 12:30:02;;;;;;;13.25;6.93;;;;;;;;;;12843606;19;20431;-66
2022/12/26 12:34:25;;;;;;;13.15;7.07;;;;;;;;;;12843446;19;20382;-67
2022/12/26 12:39:04;;;;;;;11.32;6.65;;;;;;;;;;12844000;19;20477;-67
2022/12/26 12:43:43;;;;;;;13.77;7.10;;;;;;;;;;12842144;19;20467;-66
2022/12/26 12:48:05;;;;;;;16.33;7.88;;;;;;;;;;12839950;19;20027;-66
2022/12/26 12:52:22;;;;;;;16.08;7.97;;;;;;;;;;12844025;19;20026;-67
2022/12/26 12:56:54;;;;;;;10.45;5.55;;;;;;;;;;12842466;19;20328;-67
2022/12/26 13:03:17;;;;;;;46.70;18.65;;;;;;;;;;12659349;19;20610;-67
2022/12/26 13:07:41;;;;;;;46.58;18.90;;;;;;;;;;12774279;19;20451;-66
2022/12/26 13:12:07;;;;;;;49.80;20.75;;;;;;;;;;12896081;19;20367;-68
2022/12/26 13:16:31;;;;;;;35.92;12.45;;;;;;;;;;12896668;19;20038;-67
2022/12/26 13:21:02;;;;;;;33.25;12.30;;;;;;;;;;12896629;19;20303;-66
2022/12/26 13:25:24;;;;;;;16.92;7.75;;;;;;;;;;12893163;19;20755;-67
2022/12/26 13:29:44;;;;;;;54.80;20.73;;;;;;;;;;12894718;19;20414;-65
2022/12/26 13:34:03;;;;;;;23.95;11.88;;;;;;;;;;12891017;19;20559;-65
2022/12/26 13:38:22;;;;;;;32.63;14.52;;;;;;;;;;12893651;19;20102;-65
2022/12/26 13:47:38;;;;;;;20.75;10.27;;;;;;;;;;12893462;19;20359;-64
2022/12/26 13:52:18;;;;;;;22.10;10.82;;;;;;;;;;12894448;19;20335;-65
2022/12/26 13:56:40;;;;;;;17.95;10.15;;;;;;;;;;12895056;19;20430;-65
2022/12/26 14:01:32;;;;;;;23.67;10.55;;;;;;;;;;12895243;19;20398;-66
2022/12/26 14:06:28;;;;;;;33.38;14.70;;;;;;;;;;12895456;19;20441;-64
2022/12/26 14:10:55;;;;;;;31.05;15.63;;;;;;;;;;12887892;19;20435;-64
2022/12/26 14:15:27;;;;;;;36.10;15.82;;;;;;;;;;12842017;19;20043;-64
2022/12/26 14:19:57;;;;;;;29.17;14.40;;;;;;;;;;12845208;19;20491;-65
2022/12/26 14:24:40;;;;;;;19.23;11.15;;;;;;;;;;12843195;19;20007;-64
2022/12/26 14:29:18;;;;;;;19.08;9.52;;;;;;;;;;12844472;19;20043;-64
2022/12/26 14:33:39;;;;;;;31.88;15.55;;;;;;;;;;12843184;19;20344;-65
2022/12/26 14:38:28;;;;;;;21.35;9.63;;;;;;;;;;12842130;19;20319;-66
2022/12/26 14:43:10;;;;;;;35.17;16.25;;;;;;;;;;12839494;19;20343;-65
2022/12/26 14:47:48;;;;;;;39.15;18.17;;;;;;;;;;12842878;19;20018;-65
2022/12/26 14:52:23;;;;;;;67.28;28.63;;;;;;;;;;12842389;19;20018;-66
2022/12/26 14:56:41;;;;;;;25.13;12.85;;;;;;;;;;12842648;19;20332;-65
2022/12/26 15:01:07;;;;;;;;;;;;;;;;;;12841682;19;20450;-65
2022/12/26 15:05:31;;;;;;;30.63;14.90;;;;;;;;;;12841439;19;20338;-65
2022/12/26 15:10:30;;;;;;;18.25;10.27;;;;;;;;;;12842762;19;20336;-66
2022/12/26 15:15:14;;;;;;;33.80;17.02;;;;;;;;;;12838950;19;20434;-66
2022/12/26 15:19:59;;;;;;;69.78;35.22;;;;;;;;;;12840520;19;20331;-65
2022/12/26 15:24:36;;;;;;;51.92;27.00;;;;;;;;;;12838070;19;20462;-65
2022/12/26 15:29:55;;;;;;;50.30;26.43;;;;;;;;;;12839238;19;20030;-65
2022/12/26 15:34:39;;;;;;;30.17;18.35;;;;;;;;;;12840138;19;20434;-65
2022/12/26 15:39:34;;;;;;;21.80;12.80;;;;;;;;;;12839516;19;20015;-67
2022/12/26 15:44:06;;;;;;;27.52;14.48;;;;;;;;;;12840491;19;20371;-65
2022/12/26 15:49:14;;;;;;;28.80;17.70;;;;;;;;;;12786187;19;20482;-65
2022/12/26 15:54:10;;;;;;;31.42;16.48;;;;;;;;;;12835686;19;20441;-66
2022/12/26 15:59:17;;;;;;;35.38;18.10;;;;;;;;;;12839434;19;20424;-65
2022/12/26 16:03:49;;;;;;;36.53;14.32;;;;;;;;;;12838902;19;20292;-65
2022/12/26 16:08:45;;;;;;;29.80;12.98;;;;;;;;;;12836977;19;20307;-66
2022/12/26 16:13:10;;;;;;;22.80;11.35;;;;;;;;;;12837172;19;20010;-66
2022/12/26 16:17:28;;;;;;;21.02;11.45;;;;;;;;;;12838614;19;20414;-65
2022/12/26 16:26:33;;;;;;;24.63;12.80;;;;;;;;;;12836695;19;20419;-65
2022/12/26 16:30:51;;;;;;;25.80;13.52;;;;;;;;;;12836710;19;20380;-65
2022/12/26 16:35:21;;;;;;;20.52;11.27;;;;;;;;;;12836218;19;20021;-66
2022/12/26 16:39:38;;;;;;;13.05;8.75;;;;;;;;;;12837579;19;20341;-66
2022/12/26 16:44:17;;;;;;;30.08;12.65;;;;;;;;;;12835268;19;20399;-65
2022/12/26 16:48:35;;;;;;;23.42;11.57;;;;;;;;;;12835615;19;20472;-65
2022/12/26 16:53:21;;;;;;;24.48;11.82;;;;;;;;;;12834928;19;20427;-65
2022/12/26 16:57:41;;;;;;;19.13;9.05;;;;;;;;;;12836240;19;20014;-65
2022/12/26 17:01:59;;;;;;;16.60;9.10;;;;;;;;;;12834806;19;20328;-65
2022/12/26 17:06:28;;;;;;;16.75;9.05;;;;;;;;;;12833451;19;20332;-66
2022/12/26 17:10:48;;;;;;;16.15;8.20;;;;;;;;;;12833389;19;20010;-66
2022/12/26 17:15:06;;;;;;;14.07;7.20;;;;;;;;;;12834436;19;20351;-65
2022/12/26 17:19:30;;;;;;;7.38;5.13;;;;;;;;;;12834084;19;20320;-66
2022/12/26 17:24:13;;;;;;;12.18;6.20;;;;;;;;;;12835719;19;20430;-66
2022/12/26 17:28:30;;;;;;;11.75;6.75;;;;;;;;;;12834627;19;20430;-68
2022/12/26 17:32:47;;;;;;;10.48;6.63;;;;;;;;;;12835790;19;20434;-66
2022/12/26 17:37:10;;;;;;;15.43;7.80;;;;;;;;;;12834448;19;20047;-66
2022/12/26 17:41:42;;;;;;;34.85;13.23;;;;;;;;;;12831912;19;20449;-66
2022/12/26 17:46:00;;;;;;;60.47;25.00;;;;;;;;;;12831924;19;20006;-66
2022/12/26 17:50:18;;;;;;;26.02;10.48;;;;;;;;;;12846583;19;20295;-67
2022/12/26 17:54:35;;;;;;;23.43;11.70;;;;;;;;;;12845070;19;20308;-66
2022/12/26 17:58:54;;;;;;;20.47;11.07;;;;;;;;;;12846741;19;20335;-65
2022/12/26 18:03:11;;;;;;;20.17;10.65;;;;;;;;;;12843828;19;20288;-66
2022/12/26 18:07:28;;;;;;;21.60;9.07;;;;;;;;;;12843772;19;20484;-67
2022/12/26 18:11:47;;;;;;;19.95;9.45;;;;;;;;;;12846314;19;20007;-65
2022/12/26 18:16:05;;;;;;;16.52;8.38;;;;;;;;;;12843959;19;20315;-66
2022/12/26 18:20:25;;;;;;;;;;;;;;;;;;12844696;19;20031;-66
2022/12/26 18:24:42;;;;;;;16.73;8.00;;;;;;;;;;12845525;19;20239;-66
2022/12/26 18:29:00;;;;;;;12.80;7.20;;;;;;;;;;12844412;19;20532;-66
2022/12/26 18:33:17;;;;;;;13.20;7.75;;;;;;;;;;12843681;19;20438;-66
2022/12/26 18:37:34;;;;;;;10.63;6.45;;;;;;;;;;12843592;19;20465;-66
2022/12/26 18:41:51;;;;;;;15.43;8.10;;;;;;;;;;12843441;19;20007;-66
2022/12/26 18:46:16;;;;;;;14.68;7.53;;;;;;;;;;12842712;19;20438;-65
2022/12/26 18:50:36;;;;;;;17.38;9.40;;;;;;;;;;12841905;19;20329;-65
2022/12/26 18:54:53;;;;;;;13.63;7.72;;;;;;;;;;12842736;19;20442;-67
2022/12/26 18:59:13;;;;;;;14.50;9.20;;;;;;;;;;12843427;19;20417;-66
2022/12/26 19:03:30;;;;;;;15.63;8.70;;;;;;;;;;12842481;19;20002;-66
2022/12/26 19:07:48;;;;;;;13.85;7.95;;;;;;;;;;12842429;19;20434;-66
2022/12/26 19:12:05;;;;;;;;;;;;;;;;;;12842094;19;20360;-66
2022/12/26 19:16:22;;;;;;;18.05;11.02;;;;;;;;;;12840321;19;20307;-66
2022/12/26 19:20:42;;;;;;;19.85;10.73;;;;;;;;;;12841327;19;20422;-65
2022/12/26 19:25:00;;;;;;;14.88;8.55;;;;;;;;;;12841047;19;20430;-65
2022/12/26 19:29:17;;;;;;;9.65;6.53;;;;;;;;;;12841010;19;20377;-66
2022/12/26 19:33:34;;;;;;;16.60;7.78;;;;;;;;;;12840188;19;20458;-67
2022/12/26 19:37:51;;;;;;;16.38;7.13;;;;;;;;;;12840679;19;20434;-65
2022/12/26 19:42:08;;;;;;;13.20;7.00;;;;;;;;;;12839181;19;20434;-65
2022/12/26 19:46:26;;;;;;;14.38;6.80;;;;;;;;;;12840111;19;20298;-66
2022/12/26 19:50:43;;;;;;;11.65;6.85;;;;;;;;;;12838105;19;20469;-65
2022/12/26 19:55:00;;;;;;;14.48;6.32;;;;;;;;;;12839845;19;20307;-66
2022/12/26 19:59:17;;;;;;;9.13;6.23;;;;;;;;;;12837992;19;20011;-66
2022/12/26 20:03:35;;;;;;;12.27;7.78;;;;;;;;;;12838070;19;20427;-67
2022/12/26 20:07:52;;;;;;;;;;;;;;;;;;12837716;19;20006;-67
2022/12/26 20:12:09;;;;;;;12.70;6.20;;;;;;;;;;12836127;19;20221;-66
2022/12/26 20:16:27;;;;;;;13.55;7.57;;;;;;;;;;12839048;19;20021;-68
2022/12/26 20:21:05;;;;;;;13.30;6.93;;;;;;;;;;12837105;19;20292;-66
2022/12/26 20:25:22;;;;;;;10.43;6.90;;;;;;;;;;12838944;19;20372;-66
2022/12/26 20:29:39;;;;;;;14.37;7.60;;;;;;;;;;12837688;19;20007;-68
2022/12/26 20:33:57;;;;;;;15.00;7.10;;;;;;;;;;12838704;19;20360;-67
2022/12/26 20:38:14;;;;;;;14.07;7.63;;;;;;;;;;12836814;19;20292;-65
2022/12/26 20:42:31;;;;;;;12.65;7.28;;;;;;;;;;12837725;19;20279;-65
2022/12/26 20:46:48;;;;;;;16.10;8.43;;;;;;;;;;12840024;19;20442;-65
2022/12/26 20:51:10;;;;;;;15.82;7.93;;;;;;;;;;12836148;19;20456;-66
2022/12/26 20:55:28;;;;;;;14.55;8.80;;;;;;;;;;12836721;19;20291;-67
2022/12/26 20:59:45;;;;;;;15.87;8.87;;;;;;;;;;12835113;19;20324;-66
2022/12/26 21:04:02;;;;;;;17.85;8.63;;;;;;;;;;12834599;19;20459;-66
2022/12/26 21:08:20;;;;;;;16.48;9.43;;;;;;;;;;12833284;19;20323;-66
2022/12/26 21:12:37;;;;;;;19.77;9.43;;;;;;;;;;12835007;19;20366;-66
2022/12/26 21:16:57;;;;;;;16.92;8.57;;;;;;;;;;12833918;19;20544;-65
2022/12/26 21:21:30;;;;;;;17.33;9.10;;;;;;;;;;12834347;19;20480;-65
2022/12/26 21:25:47;;;;;;;19.42;8.80;;;;;;;;;;12848160;19;20421;-66
2022/12/26 21:30:06;;;;;;;19.65;10.55;;;;;;;;;;12847705;19;20449;-66
2022/12/26 21:34:26;;;;;;;17.42;9.65;;;;;;;;;;12846733;19;26290;-66
2022/12/26 21:38:43;;;;;;;17.83;9.55;;;;;;;;;;12847556;19;20327;-66
2022/12/26 21:43:00;;;;;;;17.83;9.77;;;;;;;;;;12845751;19;20014;-66
2022/12/26 21:47:17;;;;;;;17.10;8.93;;;;;;;;;;12845842;19;20011;-67
2022/12/26 21:51:34;;;;;;;16.80;9.27;;;;;;;;;;12847400;19;20434;-67
2022/12/26 21:55:51;;;;;;;18.55;8.85;;;;;;;;;;12847002;19;19999;-67
2022/12/26 22:00:09;;;;;;;14.70;8.30;;;;;;;;;;12842297;19;20027;-66
2022/12/26 22:04:28;;;;;;;17.63;9.32;;;;;;;;;;12846093;19;20316;-67
2022/12/26 22:08:45;;;;;;;15.18;9.68;;;;;;;;;;12848102;19;20557;-67
2022/12/26 22:13:03;;;;;;;20.92;10.60;;;;;;;;;;12846072;19;20438;-66
2022/12/26 22:17:20;;;;;;;21.05;10.77;;;;;;;;;;12843788;19;20477;-68
2022/12/26 22:21:37;;;;;;;30.23;15.50;;;;;;;;;;12844814;19;20014;-66
2022/12/26 22:25:54;;;;;;;23.65;11.50;;;;;;;;;;12845044;19;20430;-66
2022/12/26 22:30:12;;;;;;;19.65;9.82;;;;;;;;;;12841941;19;20320;-68
2022/12/26 22:34:29;;;;;;;19.93;11.03;;;;;;;;;;12843763;19;20309;-66
2022/12/26 22:38:46;;;;;;;29.83;14.05;;;;;;;;;;12844155;19;20264;-66
2022/12/26 22:43:03;;;;;;;18.27;8.90;;;;;;;;;;12842036;19;20010;-68
2022/12/26 22:47:20;;;;;;;24.13;11.10;;;;;;;;;;12843739;19;20330;-67
2022/12/26 22:51:38;;;;;;;26.00;11.15;;;;;;;;;;12843749;19;20423;-66
2022/12/26 22:55:58;;;;;;;19.00;10.90;;;;;;;;;;12843350;19;20426;-66
2022/12/26 23:00:16;;;;;;;17.60;9.18;;;;;;;;;;12840887;19;20019;-66
2022/12/26 23:04:33;;;;;;;21.92;10.45;;;;;;;;;;12843235;19;20426;-66
2022/12/26 23:08:53;;;;;;;14.52;8.02;;;;;;;;;;12843359;19;20015;-66
2022/12/26 23:13:12;;;;;;;15.80;8.50;;;;;;;;;;12841294;19;20007;-66
2022/12/26 23:22:09;;;;;;;27.08;12.25;;;;;;;;;;12838455;19;20442;-67
2022/12/26 23:26:26;;;;;;;29.13;11.60;;;;;;;;;;12841647;19;20324;-66
2022/12/26 23:30:43;;;;;;;22.38;10.77;;;;;;;;;;12841457;19;20011;-66
2022/12/26 23:35:00;;;;;;;21.77;11.15;;;;;;;;;;12841570;19;20010;-66
2022/12/26 23:39:17;;;;;;;13.55;8.13;;;;;;;;;;12840587;19;20310;-66
2022/12/26 23:43:35;;;;;;;13.00;7.53;;;;;;;;;;12838573;19;20435;-66
2022/12/26 23:47:52;;;;;;;12.50;7.00;;;;;;;;;;12838587;19;20292;-65
2022/12/26 23:52:09;;;;;;;9.75;6.53;;;;;;;;;;12839914;19;20319;-66
2022/12/26 23:56:26;;;;;;;13.88;7.00;;;;;;;;;;12840138;19;20038;-68
